createdAt,value
2024-04-23T00:01:00.802Z,3.35
2024-04-23T00:06:05.530Z,5.20
2024-04-23T00:11:10.199Z,4.13
2024-04-23T00:16:17.930Z,3.50
2024-04-23T00:21:22.556Z,3.08
2024-04-23T00:26:27.414Z,4.78
2024-04-23T00:31:34.637Z,6.00
2024-04-23T00:36:39.093Z,6.95
2024-04-23T00:41:43.983Z,4.82
2024-04-23T00:46:51.650Z,5.18
2024-04-23T00:51:56.803Z,5.63
2024-04-23T00:57:03.357Z,8.70
2024-04-23T01:02:10.483Z,6.82
2024-04-23T01:07:15.435Z,5.82
2024-04-23T01:12:19.801Z,7.28
2024-04-23T01:17:27.383Z,5.97
2024-04-23T01:22:33.507Z,7.88
2024-04-23T01:27:40.991Z,7.65
2024-04-23T01:32:47.092Z,7.30
2024-04-23T01:37:53.919Z,7.55
2024-04-23T01:43:01.422Z,6.55
2024-04-23T01:48:07.652Z,4.03
2024-04-23T01:53:12.383Z,6.70
2024-04-23T01:58:19.503Z,5.82
2024-04-23T02:03:24.240Z,10.35
2024-04-23T02:08:28.913Z,6.93
2024-04-23T02:13:36.457Z,9.15
2024-04-23T02:18:41.177Z,10.13
2024-04-23T02:23:46.045Z,8.18
2024-04-23T02:28:53.178Z,9.18
2024-04-23T02:33:57.924Z,11.45
2024-04-23T02:39:02.257Z,11.57
2024-04-23T02:44:10.168Z,12.30
2024-04-23T02:49:14.616Z,9.48
2024-04-23T02:54:19.014Z,10.68
2024-04-23T02:59:26.535Z,9.05
2024-04-23T03:04:31.211Z,10.50
2024-04-23T03:09:35.581Z,8.55
2024-04-23T03:14:44.079Z,10.45
2024-04-23T03:19:48.957Z,11.55
2024-04-23T03:24:53.548Z,10.57
2024-04-23T03:30:01.140Z,11.65
2024-04-23T03:35:05.774Z,10.77
2024-04-23T03:40:11.224Z,10.02
2024-04-23T03:45:18.219Z,14.77
2024-04-23T03:50:28.291Z,10.38
2024-04-23T03:55:32.693Z,14.50
2024-04-23T04:00:40.366Z,10.40
2024-04-23T04:06:00.989Z,10.57
2024-04-23T04:11:07.153Z,9.45
2024-04-23T04:16:14.594Z,11.90
2024-04-23T04:21:19.437Z,13.05
2024-04-23T04:26:25.064Z,13.00
2024-04-23T04:31:32.275Z,9.38
2024-04-23T04:36:37.241Z,10.00
2024-04-23T04:41:41.558Z,14.40
2024-04-23T04:46:48.699Z,11.48
2024-04-23T04:51:53.255Z,11.98
2024-04-23T04:56:57.575Z,10.65
2024-04-23T05:02:04.990Z,11.38
2024-04-23T05:07:09.715Z,12.13
2024-04-23T05:12:16.174Z,10.82
2024-04-23T05:17:26.166Z,11.27
2024-04-23T05:22:32.439Z,9.45
2024-04-23T05:27:38.621Z,9.57
2024-04-23T05:32:52.560Z,10.93
2024-04-23T05:37:56.993Z,9.85
2024-04-23T05:43:03.449Z,13.27
2024-04-23T05:48:26.579Z,13.48
2024-04-23T05:53:52.244Z,10.85
2024-04-23T05:58:59.572Z,10.68
2024-04-23T06:04:03.960Z,12.05
2024-04-23T06:09:08.902Z,11.18
2024-04-23T06:14:16.239Z,9.88
2024-04-23T06:19:20.948Z,13.57
2024-04-23T06:24:25.469Z,11.68
2024-04-23T06:29:34.386Z,12.95
2024-04-23T06:34:38.739Z,12.75
2024-04-23T06:39:43.661Z,9.90
2024-04-23T06:44:51.945Z,11.75
2024-04-23T06:49:56.568Z,12.20
2024-04-23T06:55:02.744Z,9.55
2024-04-23T07:00:10.689Z,9.85
2024-04-23T07:05:15.252Z,10.13
2024-04-23T07:10:20.257Z,9.55
2024-04-23T07:15:27.205Z,11.13
2024-04-23T07:20:31.525Z,9.90
2024-04-23T07:25:36.153Z,10.93
2024-04-23T07:30:44.307Z,9.88
2024-04-23T07:35:49.309Z,10.57
2024-04-23T07:40:53.915Z,10.52
2024-04-23T07:46:00.985Z,11.07
2024-04-23T07:51:07.004Z,11.00
2024-04-23T07:56:12.621Z,13.50
2024-04-23T08:01:22.716Z,10.55
2024-04-23T08:06:27.427Z,9.88
2024-04-23T08:11:31.992Z,10.50
2024-04-23T08:16:39.045Z,9.60
2024-04-23T08:21:44.302Z,10.65
2024-04-23T08:26:48.557Z,9.35
2024-04-23T08:31:57.587Z,9.73
2024-04-23T08:37:02.647Z,10.35
2024-04-23T08:42:11.141Z,11.88
2024-04-23T08:47:19.705Z,12.82
2024-04-23T08:52:27.016Z,11.93
2024-04-23T08:57:32.690Z,10.18
2024-04-23T09:02:40.638Z,12.52
2024-04-23T09:07:45.972Z,9.80
2024-04-23T09:12:50.521Z,8.75
2024-04-23T09:18:00.622Z,8.38
2024-04-23T09:23:05.696Z,8.68
2024-04-23T09:28:11.090Z,10.60
2024-04-23T09:33:18.432Z,8.15
2024-04-23T09:38:23.831Z,11.43
2024-04-23T09:43:28.202Z,12.00
2024-04-23T09:48:36.513Z,9.48
2024-04-23T09:53:42.198Z,9.45
2024-04-23T09:58:47.153Z,9.95
2024-04-23T10:03:57.403Z,9.70
2024-04-23T10:09:03.811Z,11.10
2024-04-23T10:14:16.547Z,8.50
2024-04-23T10:19:25.503Z,12.45
2024-04-23T10:24:30.128Z,11.48
2024-04-23T10:29:35.074Z,10.25
2024-04-23T10:34:44.402Z,11.38
2024-04-23T10:39:49.692Z,13.30
2024-04-23T10:44:56.611Z,14.13
2024-04-23T10:50:09.916Z,11.85
2024-04-23T10:55:16.517Z,12.23
2024-04-23T11:00:30.567Z,13.18
2024-04-23T11:05:47.834Z,13.30
2024-04-23T11:10:53.983Z,11.95
2024-04-23T11:16:00.559Z,11.75
2024-04-23T11:21:10.782Z,10.13
2024-04-23T11:26:15.711Z,10.80
2024-04-23T11:31:21.739Z,12.57
2024-04-23T11:36:33.919Z,9.57
2024-04-23T11:41:42.190Z,8.70
2024-04-23T11:46:50.819Z,11.30
2024-04-23T11:51:58.162Z,10.50
2024-04-23T11:57:03.081Z,11.77
2024-04-23T12:02:09.707Z,10.30
2024-04-23T12:07:17.231Z,10.75
2024-04-23T12:12:22.493Z,11.68
2024-04-23T12:17:27.367Z,13.88
2024-04-23T12:22:38.398Z,12.98
2024-04-23T12:27:45.799Z,15.25
2024-04-23T12:32:51.384Z,10.70
2024-04-23T12:38:03.336Z,11.95
2024-04-23T12:43:10.745Z,11.20
2024-04-23T12:48:19.096Z,11.93
2024-04-23T12:53:26.750Z,14.60
2024-04-23T12:58:34.470Z,10.98
2024-04-23T13:03:39.237Z,11.70
2024-04-23T13:08:48.431Z,12.90
2024-04-23T13:13:52.935Z,12.75
2024-04-23T13:18:57.353Z,13.57
2024-04-23T13:24:05.102Z,12.95
2024-04-23T13:29:14.530Z,16.77
2024-04-23T13:34:20.525Z,13.60
2024-04-23T13:39:29.769Z,16.65
2024-04-23T13:44:35.244Z,12.85
2024-04-23T13:49:39.971Z,13.88
2024-04-23T13:54:47.191Z,13.32
2024-04-23T13:59:52.680Z,14.50
2024-04-23T14:04:58.459Z,13.60
2024-04-23T14:10:05.800Z,13.82
2024-04-23T14:15:16.788Z,14.32
2024-04-23T14:20:21.537Z,13.45
2024-04-23T14:25:28.879Z,16.38
2024-04-23T14:30:33.165Z,12.52
2024-04-23T14:35:39.358Z,13.77
2024-04-23T14:40:46.998Z,13.65
2024-04-23T14:45:52.544Z,15.98
2024-04-23T14:51:00.029Z,15.65
2024-04-23T14:56:08.100Z,15.55
2024-04-23T15:01:13.080Z,14.43
2024-04-23T15:06:18.023Z,13.25
2024-04-23T15:11:25.366Z,14.02
2024-04-23T15:16:29.847Z,11.90
2024-04-23T15:21:34.173Z,16.27
2024-04-23T15:26:41.462Z,14.13
2024-04-23T15:31:47.969Z,15.80
2024-04-23T15:36:53.842Z,11.52
2024-04-23T15:42:01.025Z,13.38
2024-04-23T15:47:05.570Z,13.48
2024-04-23T15:52:10.812Z,16.48
2024-04-23T15:57:17.815Z,12.65
2024-04-23T16:02:23.200Z,14.45
2024-04-23T16:07:29.027Z,15.10
2024-04-23T16:12:36.247Z,13.68
2024-04-23T16:17:40.914Z,13.60
2024-04-23T16:22:45.464Z,14.18
2024-04-23T16:27:58.141Z,12.98
2024-04-23T16:33:04.166Z,15.07
2024-04-23T16:38:09.177Z,15.43
2024-04-23T16:43:20.279Z,13.88
2024-04-23T16:48:27.840Z,14.43
2024-04-23T16:53:34.084Z,16.10
2024-04-23T16:58:42.018Z,11.60
2024-04-23T17:03:48.749Z,15.23
2024-04-23T17:08:53.761Z,11.27
2024-04-23T17:14:00.876Z,14.80
2024-04-23T17:19:05.303Z,8.95
2024-04-23T17:24:09.956Z,11.68
2024-04-23T17:29:17.123Z,11.40
2024-04-23T17:34:21.586Z,11.80
2024-04-23T17:39:26.362Z,10.82
2024-04-23T17:44:33.472Z,12.07
2024-04-23T17:49:38.156Z,24.02
2024-04-23T17:54:43.541Z,13.15
2024-04-23T17:59:51.367Z,13.68
2024-04-23T18:04:57.078Z,18.20
2024-04-23T18:10:01.936Z,12.07
2024-04-23T18:15:09.531Z,13.43
2024-04-23T18:20:14.369Z,9.73
2024-04-23T18:25:20.475Z,15.73
2024-04-23T18:30:27.482Z,10.82
2024-04-23T18:35:32.114Z,12.23
2024-04-23T18:40:53.777Z,13.45
2024-04-23T18:46:02.067Z,9.82
2024-04-23T18:51:07.236Z,12.77
2024-04-23T18:56:14.749Z,10.60
2024-04-23T19:01:21.844Z,8.57
2024-04-23T19:06:32.296Z,7.05
2024-04-23T19:11:40.871Z,11.88
2024-04-23T19:16:48.484Z,14.38
2024-04-23T19:21:53.701Z,12.43
2024-04-23T19:26:58.419Z,6.80
2024-04-23T19:32:05.629Z,15.75
2024-04-23T19:37:12.722Z,16.05
2024-04-23T19:42:24.483Z,16.65
2024-04-23T19:47:33.701Z,11.23
2024-04-23T19:52:38.423Z,17.52
2024-04-23T19:57:59.564Z,20.13
2024-04-23T20:03:09.116Z,17.20
2024-04-23T20:08:14.589Z,11.77
2024-04-23T20:13:19.806Z,20.52
2024-04-23T20:18:31.461Z,20.67
2024-04-23T20:23:38.715Z,17.73
2024-04-23T20:28:43.566Z,17.85
2024-04-23T20:33:50.839Z,12.98
2024-04-23T20:38:58.453Z,15.32
2024-04-23T20:44:03.194Z,11.70
2024-04-23T20:49:12.567Z,23.15
2024-04-23T20:54:19.480Z,13.77
2024-04-23T20:59:25.024Z,15.98
2024-04-23T21:04:32.809Z,14.82
2024-04-23T21:09:37.585Z,11.98
2024-04-23T21:14:42.250Z,12.70
2024-04-23T21:19:50.126Z,24.58
2024-04-23T21:24:55.005Z,14.68
2024-04-23T21:29:59.410Z,26.05
2024-04-23T21:35:07.150Z,15.82
2024-04-23T21:40:12.299Z,24.27
2024-04-23T21:45:17.383Z,15.45
2024-04-23T21:50:24.444Z,21.95
2024-04-23T21:55:29.168Z,24.48
2024-04-23T22:00:34.830Z,22.58
2024-04-23T22:05:41.989Z,28.70
2024-04-23T22:10:46.742Z,22.55
2024-04-23T22:15:51.785Z,25.95
2024-04-23T22:20:59.272Z,12.93
2024-04-23T22:26:04.801Z,13.13
2024-04-23T22:31:09.269Z,21.63
2024-04-23T22:36:16.387Z,12.98
2024-04-23T22:41:20.868Z,17.30
2024-04-23T22:46:25.384Z,16.25
2024-04-23T22:51:32.352Z,13.93
2024-04-23T22:56:37.283Z,20.75
2024-04-23T23:01:44.563Z,23.75
2024-04-23T23:06:51.560Z,17.38
2024-04-23T23:11:56.475Z,25.63
2024-04-23T23:17:01.245Z,24.08
2024-04-23T23:22:08.399Z,12.43
2024-04-23T23:27:13.326Z,18.33
2024-04-23T23:32:18.232Z,24.38
2024-04-23T23:37:25.485Z,9.35
2024-04-23T23:42:31.047Z,12.15
2024-04-23T23:47:35.655Z,12.98
2024-04-23T23:52:43.582Z,25.77
2024-04-23T23:57:48.429Z,25.63
